Time;durP1;ratioP1;P1;durP2;ratioP2;P2;SDS_P1;SDS_P2;PMS_P1;PMS_P2;Temp;Humidity;BMP_temperature;BMP_pressure;BME280_temperature;BME280_humidity;BME280_pressure;Samples;Min_cycle;Max_cycle;Signal;HPM_P1;HPM_P2
2023/03/08 00:01:12;;;;;;;2.65;1.65;;;-0.70;99.90;;;;;;5062791;28;20366;-65
2023/03/08 00:03:38;;;;;;;4.80;1.77;;;-0.70;99.90;;;;;;5085384;28;20044;-65
2023/03/08 00:06:10;;;;;;;3.58;1.70;;;-0.70;99.90;;;;;;5081878;28;20044;-65
2023/03/08 00:08:36;;;;;;;4.25;1.83;;;-0.70;99.90;;;;;;5068589;28;20429;-65
2023/03/08 00:11:09;;;;;;;4.05;1.65;;;-0.70;99.90;;;;;;5066309;28;20047;-66
2023/03/08 00:13:35;;;;;;;5.72;1.77;;;-0.70;99.90;;;;;;5083733;28;20371;-65
2023/03/08 00:16:03;;;;;;;3.47;1.50;;;-0.70;99.90;;;;;;5085802;28;20039;-65
2023/03/08 00:18:29;;;;;;;5.53;1.63;;;-0.80;99.90;;;;;;5081506;28;20873;-65
2023/03/08 00:21:06;;;;;;;3.03;1.42;;;-0.80;99.90;;;;;;5082855;28;20035;-65
2023/03/08 00:23:32;;;;;;;4.00;1.85;;;-0.80;99.90;;;;;;5082726;28;20082;-65
2023/03/08 00:25:59;;;;;;;3.15;1.73;;;-0.80;99.90;;;;;;5080860;28;20054;-66
2023/03/08 00:28:25;;;;;;;4.00;1.92;;;-0.80;99.90;;;;;;5078983;28;20717;-65
2023/03/08 00:31:02;;;;;;;4.15;1.60;;;-0.70;99.90;;;;;;5083488;28;20105;-65
2023/03/08 00:33:29;;;;;;;3.80;1.90;;;-0.70;99.90;;;;;;5066557;28;20408;-65
2023/03/08 00:35:59;;;;;;;4.20;1.67;;;-0.80;99.90;;;;;;5081937;28;20036;-65
2023/03/08 00:38:25;;;;;;;3.50;1.77;;;-0.80;99.90;;;;;;5080845;28;20040;-66
2023/03/08 00:40:51;;;;;;;3.28;1.60;;;-0.70;99.90;;;;;;5084342;28;20484;-65
2023/03/08 00:43:17;;;;;;;4.93;2.05;;;-0.80;99.90;;;;;;5063892;28;20048;-65
2023/03/08 00:45:42;;;;;;;6.90;1.80;;;-0.80;99.90;;;;;;5062699;28;20040;-66
2023/03/08 00:48:08;;;;;;;4.00;1.73;;;-0.80;99.90;;;;;;5081218;28;20063;-66
2023/03/08 00:50:34;;;;;;;5.97;2.17;;;-0.70;99.90;;;;;;5076761;28;20123;-66
2023/03/08 00:52:59;;;;;;;5.32;2.55;;;-0.70;99.90;;;;;;5068918;28;20080;-66
2023/03/08 00:55:25;;;;;;;4.80;2.55;;;-0.70;99.90;;;;;;5060961;28;20082;-66
2023/03/08 00:57:51;;;;;;;4.72;2.60;;;-0.70;99.90;;;;;;5084918;28;20054;-65
2023/03/08 01:00:17;;;;;;;3.65;2.40;;;-0.80;99.90;;;;;;5082287;28;20029;-65
2023/03/08 01:02:42;;;;;;;5.30;2.17;;;-0.80;99.90;;;;;;5066525;28;20064;-65
2023/03/08 01:05:09;;;;;;;7.20;2.45;;;-0.80;99.90;;;;;;5066235;28;20496;-66
2023/03/08 01:07:35;;;;;;;3.20;1.90;;;-0.80;99.90;;;;;;5076739;28;20549;-65
2023/03/08 01:10:02;;;;;;;3.95;2.17;;;-0.80;99.90;;;;;;5081884;28;20048;-65
2023/03/08 01:12:28;;;;;;;4.57;1.80;;;-0.90;99.90;;;;;;5083408;28;20036;-65
2023/03/08 01:14:54;;;;;;;4.95;2.13;;;-0.80;99.90;;;;;;5065639;28;20147;-65
2023/03/08 01:17:20;;;;;;;3.42;2.35;;;-0.90;99.90;;;;;;5068326;28;20089;-65
2023/03/08 01:19:45;;;;;;;5.85;2.08;;;-0.90;99.90;;;;;;5069129;28;20515;-65
2023/03/08 01:22:11;;;;;;;6.00;2.17;;;-0.90;99.90;;;;;;5085035;28;20114;-65
2023/03/08 01:24:37;;;;;;;3.90;1.88;;;-0.90;99.90;;;;;;5077225;28;20036;-65
2023/03/08 01:27:02;;;;;;;3.13;2.50;;;-1.00;99.90;;;;;;5070757;28;20127;-66
2023/03/08 01:29:28;;;;;;;6.47;2.47;;;-1.00;99.90;;;;;;5060546;28;20479;-66
2023/03/08 01:31:54;;;;;;;5.05;2.70;;;-1.00;99.90;;;;;;5064971;28;20488;-66
2023/03/08 01:34:20;;;;;;;7.13;3.08;;;-1.00;99.90;;;;;;5048510;28;20054;-66
2023/03/08 01:36:46;;;;;;;6.05;3.22;;;-1.00;99.90;;;;;;5062349;28;20412;-65
2023/03/08 01:39:11;;;;;;;5.88;3.70;;;-1.00;99.90;;;;;;5069230;28;20063;-66
2023/03/08 01:41:37;;;;;;;7.05;4.50;;;-1.00;99.90;;;;;;5066122;28;20178;-65
2023/03/08 01:44:03;;;;;;;6.40;4.47;;;-1.10;99.90;;;;;;5084834;28;20089;-65
2023/03/08 01:46:34;;;;;;;8.65;5.10;;;-1.00;99.90;;;;;;5079972;28;20119;-66
2023/03/08 01:49:19;;;;;;;6.57;5.47;;;-1.00;99.90;;;;;;5083975;28;20052;-66
2023/03/08 01:52:05;;;;;;;10.23;5.97;;;-1.00;99.90;;;;;;5069932;28;20391;-66
2023/03/08 01:54:39;;;;;;;8.30;5.88;;;-1.10;99.90;;;;;;5079207;28;20487;-66
2023/03/08 01:57:14;;;;;;;9.98;6.20;;;-1.00;99.90;;;;;;5080373;28;20047;-66
2023/03/08 01:59:41;;;;;;;8.63;6.22;;;-1.00;99.90;;;;;;5081125;28;20044;-66
2023/03/08 02:02:07;;;;;;;11.65;6.80;;;-1.00;99.90;;;;;;5085023;28;20048;-65
2023/03/08 02:04:33;;;;;;;7.82;6.20;;;-1.10;99.90;;;;;;5078480;28;20126;-65
2023/03/08 02:06:59;;;;;;;10.93;7.57;;;-1.00;99.90;;;;;;5058010;28;20035;-65
2023/03/08 02:09:25;;;;;;;11.80;8.05;;;-1.00;99.90;;;;;;5064894;28;20039;-65
2023/03/08 02:11:51;;;;;;;10.00;7.47;;;-1.00;99.90;;;;;;5082347;28;20119;-65
2023/03/08 02:14:17;;;;;;;11.80;7.68;;;-1.00;99.90;;;;;;5083553;28;20081;-65
2023/03/08 02:16:43;;;;;;;7.50;6.63;;;-1.00;99.90;;;;;;5083954;28;20040;-65
2023/03/08 02:19:22;;;;;;;11.20;6.75;;;-1.00;99.90;;;;;;5084792;28;20040;-65
2023/03/08 02:21:47;;;;;;;10.65;7.07;;;-1.00;99.90;;;;;;5081612;28;20036;-65
2023/03/08 02:24:22;;;;;;;10.52;7.43;;;-1.10;99.90;;;;;;5061986;28;20039;-65
2023/03/08 02:26:51;;;;;;;15.15;7.80;;;-1.10;99.90;;;;;;5079472;28;20031;-65
2023/03/08 02:29:17;;;;;;;10.35;7.65;;;-1.10;99.90;;;;;;5065749;28;20075;-65
2023/03/08 02:31:43;;;;;;;11.63;8.15;;;-1.10;99.90;;;;;;5063473;28;20032;-66
2023/03/08 02:34:09;;;;;;;10.80;7.88;;;-1.10;99.90;;;;;;5064386;28;20036;-65
2023/03/08 02:36:34;;;;;;;10.80;7.15;;;-1.10;99.90;;;;;;5059801;28;20528;-65
2023/03/08 02:39:00;;;;;;;11.10;7.38;;;-1.10;99.90;;;;;;5066375;28;20055;-65
2023/03/08 02:41:26;;;;;;;10.07;6.85;;;-1.10;99.90;;;;;;5060109;28;20353;-65
2023/03/08 02:43:51;;;;;;;11.10;7.47;;;-1.10;99.90;;;;;;5059147;28;20128;-66
2023/03/08 02:46:17;;;;;;;10.50;7.07;;;-1.10;99.90;;;;;;5081677;28;20036;-66
2023/03/08 02:48:45;;;;;;;11.30;7.55;;;-1.10;99.90;;;;;;5081036;28;20083;-66
2023/03/08 02:51:10;;;;;;;13.30;7.78;;;-1.10;99.90;;;;;;5078886;28;20036;-66
2023/03/08 02:53:36;;;;;;;13.80;7.75;;;-1.10;99.90;;;;;;5060010;28;20349;-66
2023/03/08 02:56:02;;;;;;;12.88;8.02;;;-1.10;99.90;;;;;;5067921;28;20119;-66
2023/03/08 02:58:28;;;;;;;11.85;7.38;;;-1.10;99.90;;;;;;5063041;28;20036;-66
2023/03/08 03:00:53;;;;;;;11.63;7.45;;;-1.10;99.90;;;;;;5057723;28;20036;-66
2023/03/08 03:03:19;;;;;;;10.80;7.65;;;-1.10;99.90;;;;;;5076313;28;20140;-66
2023/03/08 03:05:45;;;;;;;11.57;6.90;;;-1.10;99.90;;;;;;5079344;28;20066;-66
2023/03/08 03:08:11;;;;;;;8.48;6.97;;;-1.10;99.90;;;;;;5081465;28;20126;-66
2023/03/08 03:10:37;;;;;;;9.77;6.90;;;-1.10;99.90;;;;;;5065215;28;20037;-66
2023/03/08 03:13:04;;;;;;;11.57;7.32;;;-1.20;99.90;;;;;;5071628;28;20044;-66
2023/03/08 03:15:31;;;;;;;10.85;7.30;;;-1.20;99.90;;;;;;5071765;28;20075;-66
2023/03/08 03:17:57;;;;;;;10.18;6.93;;;-1.20;99.90;;;;;;5067810;28;20071;-66
2023/03/08 03:20:23;;;;;;;12.20;7.82;;;-1.20;99.90;;;;;;5081724;28;20040;-66
2023/03/08 03:22:48;;;;;;;11.00;7.05;;;-1.20;99.90;;;;;;5083652;28;20502;-66
2023/03/08 03:25:14;;;;;;;14.38;7.63;;;-1.20;99.90;;;;;;5067220;28;20082;-66
2023/03/08 03:27:40;;;;;;;9.07;7.30;;;-1.20;99.90;;;;;;5069807;28;20078;-66
2023/03/08 03:30:08;;;;;;;11.88;7.30;;;-1.20;99.90;;;;;;5061830;28;20072;-66
2023/03/08 03:32:33;;;;;;;12.30;6.85;;;-1.20;99.90;;;;;;5086683;28;20112;-66
2023/03/08 03:34:59;;;;;;;10.13;6.53;;;-1.20;99.90;;;;;;5070414;28;20048;-65
2023/03/08 03:37:25;;;;;;;9.15;6.85;;;-1.30;99.90;;;;;;5074097;28;20067;-65
2023/03/08 03:39:51;;;;;;;11.02;6.63;;;-1.30;99.90;;;;;;5065221;28;20041;-65
2023/03/08 03:42:17;;;;;;;8.27;6.35;;;-1.30;99.90;;;;;;5085398;28;20039;-66
2023/03/08 03:44:43;;;;;;;9.40;6.75;;;-1.30;99.90;;;;;;5069127;28;20411;-66
2023/03/08 03:47:09;;;;;;;10.00;6.47;;;-1.30;99.90;;;;;;5088481;28;20155;-66
2023/03/08 03:49:34;;;;;;;7.70;5.60;;;-1.40;99.90;;;;;;5077573;28;20425;-66
2023/03/08 03:52:00;;;;;;;12.00;6.10;;;-1.40;99.90;;;;;;5069226;28;20058;-66
2023/03/08 03:54:26;;;;;;;8.07;6.00;;;-1.40;99.90;;;;;;5085285;28;20451;-66
2023/03/08 03:56:52;;;;;;;10.95;6.57;;;-1.40;99.90;;;;;;5066830;28;20474;-66
2023/03/08 03:59:17;;;;;;;8.40;5.95;;;-1.40;99.90;;;;;;5087826;28;20395;-67
2023/03/08 04:01:43;;;;;;;13.93;6.70;;;-1.40;99.90;;;;;;5068058;28;20032;-66
2023/03/08 04:04:10;;;;;;;9.48;6.65;;;-1.40;99.90;;;;;;5084332;28;20233;-66
2023/03/08 04:06:35;;;;;;;8.50;6.47;;;-1.50;99.90;;;;;;5083184;28;20062;-66
2023/03/08 04:09:07;;;;;;;9.57;6.05;;;-1.40;99.90;;;;;;5068713;28;20044;-66
2023/03/08 04:11:36;;;;;;;9.27;7.07;;;-1.50;99.90;;;;;;5067237;28;20062;-66
2023/03/08 04:14:03;;;;;;;11.93;6.25;;;-1.50;99.90;;;;;;5066776;28;20040;-67
2023/03/08 04:16:32;;;;;;;8.27;6.32;;;-1.40;99.90;;;;;;5066150;28;20048;-66
2023/03/08 04:19:01;;;;;;;8.15;6.20;;;-1.50;99.90;;;;;;5067795;28;20124;-66
2023/03/08 04:21:27;;;;;;;12.18;6.97;;;-1.50;99.90;;;;;;5064390;28;20051;-66
2023/03/08 04:23:53;;;;;;;7.20;6.00;;;-1.50;99.90;;;;;;5083238;28;20040;-66
2023/03/08 04:26:20;;;;;;;8.88;6.72;;;-1.50;99.90;;;;;;5079015;28;20039;-66
2023/03/08 04:28:46;;;;;;;10.27;6.75;;;-1.50;99.90;;;;;;5061368;28;20040;-66
2023/03/08 04:31:18;;;;;;;12.63;6.88;;;-1.50;99.90;;;;;;5062506;28;20043;-66
2023/03/08 04:33:45;;;;;;;11.77;7.05;;;-1.50;99.90;;;;;;5079905;28;20044;-66
2023/03/08 04:36:11;;;;;;;10.15;6.57;;;-1.50;99.90;;;;;;5077959;28;20119;-66
2023/03/08 04:38:38;;;;;;;10.38;7.82;;;-1.50;99.90;;;;;;5085166;28;20118;-66
2023/03/08 04:41:06;;;;;;;10.05;6.35;;;-1.50;99.90;;;;;;5064347;28;20054;-66
2023/03/08 04:43:33;;;;;;;9.32;6.45;;;-1.60;99.90;;;;;;5068154;28;20047;-66
2023/03/08 04:45:59;;;;;;;10.05;6.38;;;-1.60;99.90;;;;;;5085569;28;20080;-67
2023/03/08 04:48:25;;;;;;;8.68;6.10;;;-1.60;99.90;;;;;;5063582;28;20559;-66
2023/03/08 04:50:56;;;;;;;12.07;6.95;;;-1.60;99.90;;;;;;5082457;28;20044;-67
2023/03/08 04:53:22;;;;;;;8.70;6.78;;;-1.60;99.90;;;;;;5085045;28;20036;-66
2023/03/08 04:55:49;;;;;;;11.63;8.30;;;-1.70;99.90;;;;;;5069044;28;20459;-66
2023/03/08 04:58:15;;;;;;;9.95;7.47;;;-1.70;99.90;;;;;;5060304;28;20128;-66
2023/03/08 05:00:41;;;;;;;8.48;6.55;;;-1.70;99.90;;;;;;5065867;28;20029;-66
2023/03/08 05:03:07;;;;;;;9.98;7.45;;;-1.60;99.90;;;;;;5062687;28;20052;-67
2023/03/08 05:05:33;;;;;;;9.77;6.93;;;-1.70;99.90;;;;;;5086849;28;20068;-65
2023/03/08 05:08:02;;;;;;;8.48;6.55;;;-1.70;99.90;;;;;;5087569;28;20127;-66
2023/03/08 05:10:28;;;;;;;10.10;6.80;;;-1.70;99.90;;;;;;5081716;28;20044;-66
2023/03/08 05:12:54;;;;;;;11.18;7.40;;;-1.70;99.90;;;;;;5066770;28;20451;-66
2023/03/08 05:15:22;;;;;;;9.88;6.78;;;-1.70;99.90;;;;;;5087097;28;20046;-66
2023/03/08 05:17:48;;;;;;;10.57;6.80;;;-1.70;99.90;;;;;;5065828;28;20123;-65
2023/03/08 05:20:14;;;;;;;11.48;7.35;;;-1.70;99.90;;;;;;5085572;28;20547;-66
2023/03/08 05:22:40;;;;;;;10.45;7.40;;;-1.80;99.90;;;;;;5065783;28;20492;-66
2023/03/08 05:25:06;;;;;;;12.48;7.45;;;-1.80;99.90;;;;;;5080465;28;20444;-67
2023/03/08 05:27:33;;;;;;;10.55;7.07;;;-1.80;99.90;;;;;;5065081;28;20113;-66
2023/03/08 05:29:59;;;;;;;9.70;7.30;;;-1.80;99.90;;;;;;5053577;28;20078;-66
2023/03/08 05:32:25;;;;;;;8.75;6.22;;;-1.80;99.90;;;;;;5082562;28;20079;-65
2023/03/08 05:34:54;;;;;;;7.43;6.28;;;-1.80;99.90;;;;;;5084003;28;20068;-65
2023/03/08 05:37:19;;;;;;;12.00;6.88;;;-1.80;99.90;;;;;;5067757;28;20454;-66
2023/03/08 05:39:47;;;;;;;10.98;6.72;;;-1.80;99.90;;;;;;5065360;28;20055;-66
2023/03/08 05:42:12;;;;;;;9.65;6.85;;;-1.90;99.90;;;;;;5066087;28;20043;-66
2023/03/08 05:44:38;;;;;;;10.35;6.13;;;-1.90;99.90;;;;;;5082446;28;20032;-65
2023/03/08 05:47:04;;;;;;;10.43;6.43;;;-1.90;99.90;;;;;;5082797;28;20070;-65
2023/03/08 05:49:30;;;;;;;8.32;6.32;;;-1.90;99.90;;;;;;5084375;28;20039;-65
2023/03/08 05:51:55;;;;;;;9.35;6.35;;;-1.90;99.90;;;;;;5078556;28;20067;-65
2023/03/08 05:54:21;;;;;;;8.57;6.50;;;-2.00;99.90;;;;;;5078259;28;20471;-65
2023/03/08 05:56:47;;;;;;;10.10;6.55;;;-2.00;99.90;;;;;;5067676;28;20044;-65
2023/03/08 05:59:13;;;;;;;7.72;6.57;;;-2.00;99.90;;;;;;5065057;28;20531;-65
2023/03/08 06:01:38;;;;;;;9.07;6.70;;;-2.00;99.90;;;;;;5079712;28;20036;-65
2023/03/08 06:04:04;;;;;;;8.27;7.03;;;-2.00;99.90;;;;;;5060492;28;20071;-66
2023/03/08 06:06:30;;;;;;;8.50;6.78;;;-2.00;99.90;;;;;;5064698;28;20040;-65
2023/03/08 06:08:56;;;;;;;11.00;7.05;;;-2.00;99.90;;;;;;5081095;28;20110;-66
2023/03/08 06:11:22;;;;;;;12.10;7.07;;;-2.00;99.90;;;;;;5077225;28;20055;-66
2023/03/08 06:13:48;;;;;;;13.57;7.53;;;-2.00;99.90;;;;;;5067002;28;20037;-65
2023/03/08 06:16:14;;;;;;;10.85;7.97;;;-2.00;99.90;;;;;;5065386;28;20106;-65
2023/03/08 06:18:41;;;;;;;12.93;8.20;;;-2.00;99.90;;;;;;5063948;28;20044;-65
2023/03/08 06:21:14;;;;;;;12.93;8.38;;;-1.90;99.90;;;;;;5075342;28;20033;-65
2023/03/08 06:23:40;;;;;;;14.38;8.88;;;-1.90;99.90;;;;;;5070322;28;20055;-65
2023/03/08 06:26:06;;;;;;;10.13;7.55;;;-1.90;99.90;;;;;;5081846;28;20043;-65
2023/03/08 06:28:33;;;;;;;11.88;8.32;;;-2.00;99.90;;;;;;5051943;28;20051;-65
2023/03/08 06:30:58;;;;;;;12.55;8.18;;;-1.90;99.90;;;;;;5068294;28;20048;-65
2023/03/08 06:33:29;;;;;;;11.48;7.95;;;-2.00;99.90;;;;;;5084870;28;20395;-65
2023/03/08 06:36:04;;;;;;;11.65;8.32;;;-2.00;99.90;;;;;;5057989;28;20084;-65
2023/03/08 06:38:32;;;;;;;14.63;8.88;;;-1.90;99.90;;;;;;5047583;28;20414;-65
2023/03/08 06:40:58;;;;;;;14.73;9.38;;;-1.90;99.90;;;;;;5063391;28;20485;-65
2023/03/08 06:43:24;;;;;;;15.73;9.75;;;-1.90;99.90;;;;;;5088490;28;20032;-65
2023/03/08 06:45:49;;;;;;;11.73;8.82;;;-1.90;99.90;;;;;;5069632;28;20067;-65
2023/03/08 06:48:15;;;;;;;12.40;8.73;;;-1.90;99.90;;;;;;5089908;28;20083;-65
2023/03/08 06:50:41;;;;;;;14.23;9.27;;;-1.90;99.90;;;;;;5089843;28;20035;-65
2023/03/08 06:53:08;;;;;;;10.43;8.52;;;-1.80;99.90;;;;;;5075062;28;20039;-65
2023/03/08 06:55:35;;;;;;;17.52;10.73;;;-1.80;99.90;;;;;;5067094;28;20043;-65
2023/03/08 06:58:01;;;;;;;12.48;9.57;;;-1.80;99.90;;;;;;5092298;28;20147;-65
2023/03/08 07:00:27;;;;;;;12.60;9.57;;;-1.70;99.90;;;;;;5089166;28;20124;-65
2023/03/08 07:02:53;;;;;;;10.70;9.27;;;-1.70;99.90;;;;;;5068993;28;20155;-65
2023/03/08 07:05:19;;;;;;;10.95;9.20;;;-1.70;99.90;;;;;;5067694;28;20072;-65
2023/03/08 07:07:45;;;;;;;11.50;9.40;;;-1.60;99.90;;;;;;5084479;28;20037;-64
2023/03/08 07:10:15;;;;;;;10.27;9.18;;;-1.50;99.90;;;;;;5090636;28;20060;-66
2023/03/08 07:12:45;;;;;;;13.07;9.40;;;-1.50;99.90;;;;;;5074776;28;20044;-65
2023/03/08 07:15:17;;;;;;;13.82;8.90;;;-1.40;99.90;;;;;;5090165;28;20048;-65
2023/03/08 07:17:44;;;;;;;11.02;8.10;;;-1.40;99.90;;;;;;5064567;28;20497;-65
2023/03/08 07:20:12;;;;;;;10.90;8.88;;;-1.30;99.90;;;;;;5072908;28;20044;-65
2023/03/08 07:22:40;;;;;;;12.48;8.18;;;-1.20;99.90;;;;;;5053793;28;20040;-65
2023/03/08 07:25:08;;;;;;;16.55;8.50;;;-1.20;99.90;;;;;;5084971;28;20060;-65
2023/03/08 07:27:33;;;;;;;11.82;8.15;;;-1.20;99.90;;;;;;5090499;28;20044;-64
2023/03/08 07:29:59;;;;;;;8.88;7.18;;;-1.10;99.90;;;;;;5091335;28;20120;-65
2023/03/08 07:32:28;;;;;;;11.88;7.45;;;-1.10;99.90;;;;;;5088566;28;20036;-64
2023/03/08 07:34:55;;;;;;;12.40;6.97;;;-1.00;99.90;;;;;;5067654;28;20048;-65
2023/03/08 07:37:21;;;;;;;10.02;7.07;;;-1.00;99.90;;;;;;5082800;28;20040;-64
2023/03/08 07:39:46;;;;;;;7.95;6.70;;;-0.90;99.90;;;;;;5071167;28;20096;-64
2023/03/08 07:42:13;;;;;;;9.55;6.53;;;-0.80;99.90;;;;;;5090298;28;20098;-65
2023/03/08 07:44:38;;;;;;;11.23;7.40;;;-0.80;99.90;;;;;;5072220;28;20348;-64
2023/03/08 07:47:05;;;;;;;9.30;6.63;;;-0.70;99.90;;;;;;5088233;28;20043;-65
2023/03/08 07:49:31;;;;;;;9.48;6.95;;;-0.60;99.90;;;;;;5083629;28;20047;-65
2023/03/08 07:51:57;;;;;;;8.23;6.43;;;-0.60;99.90;;;;;;5075439;28;20043;-65
2023/03/08 07:54:23;;;;;;;8.55;6.57;;;-0.50;99.90;;;;;;5089486;28;20054;-66
2023/03/08 07:56:54;;;;;;;8.23;6.03;;;-0.50;99.90;;;;;;5053506;28;20060;-65
2023/03/08 07:59:21;;;;;;;9.40;6.30;;;-0.50;99.90;;;;;;5083883;28;20055;-65
2023/03/08 08:01:47;;;;;;;15.02;6.95;;;-0.40;99.90;;;;;;5085744;28;20480;-65
2023/03/08 08:04:13;;;;;;;9.57;5.80;;;-0.40;99.90;;;;;;5083228;28;20036;-65
2023/03/08 08:06:39;;;;;;;7.30;5.50;;;-0.40;99.90;;;;;;5080774;28;20036;-65
2023/03/08 08:09:06;;;;;;;7.47;6.13;;;-0.30;99.90;;;;;;5081430;28;20067;-65
2023/03/08 08:11:33;;;;;;;9.73;6.55;;;-0.30;99.90;;;;;;5069328;28;20055;-65
2023/03/08 08:13:59;;;;;;;7.13;6.30;;;-0.30;99.90;;;;;;5081432;28;20040;-65
2023/03/08 08:16:25;;;;;;;8.50;6.78;;;-0.20;99.90;;;;;;5070093;28;20143;-65
2023/03/08 08:18:53;;;;;;;9.38;6.78;;;-0.10;99.90;;;;;;5085580;28;20040;-66
2023/03/08 08:21:19;;;;;;;11.10;7.30;;;0.00;99.90;;;;;;5085356;28;20044;-65
2023/03/08 08:23:45;;;;;;;9.07;7.28;;;0.10;99.90;;;;;;5086683;28;20040;-66
2023/03/08 08:26:13;;;;;;;10.32;7.50;;;0.40;99.90;;;;;;5083168;28;20040;-66
2023/03/08 08:28:40;;;;;;;8.90;6.78;;;0.60;99.90;;;;;;5064225;28;20140;-66
2023/03/08 08:31:09;;;;;;;9.30;6.97;;;0.70;99.90;;;;;;5085812;28;20060;-66
2023/03/08 08:33:35;;;;;;;9.07;7.20;;;0.70;99.90;;;;;;5082623;28;20115;-66
2023/03/08 08:36:07;;;;;;;10.65;6.50;;;0.80;99.90;;;;;;5075741;28;20049;-66
2023/03/08 08:38:33;;;;;;;11.05;7.35;;;0.90;99.90;;;;;;5067352;28;20036;-66
2023/03/08 08:41:04;;;;;;;10.45;7.32;;;1.10;99.90;;;;;;5086009;28;20078;-66
2023/03/08 08:43:30;;;;;;;10.75;8.27;;;1.20;99.90;;;;;;5082289;28;20116;-67
2023/03/08 08:45:57;;;;;;;10.48;7.68;;;1.60;99.90;;;;;;5088013;28;20150;-67
2023/03/08 08:48:24;;;;;;;10.40;7.78;;;1.70;99.90;;;;;;5084086;28;20119;-67
2023/03/08 08:50:51;;;;;;;11.40;8.73;;;1.70;99.90;;;;;;5066543;28;20079;-67
2023/03/08 08:53:18;;;;;;;12.20;9.43;;;1.60;99.90;;;;;;5068862;28;20355;-67
2023/03/08 08:55:43;;;;;;;13.63;10.77;;;1.50;99.90;;;;;;5078203;28;20396;-67
2023/03/08 08:58:10;;;;;;;16.33;10.27;;;1.50;99.90;;;;;;5083534;28;20055;-67
2023/03/08 09:00:36;;;;;;;14.68;12.30;;;1.40;99.90;;;;;;5064719;28;20424;-67
2023/03/08 09:03:03;;;;;;;15.10;12.77;;;1.40;99.90;;;;;;5081586;28;20076;-67
2023/03/08 09:05:30;;;;;;;16.50;12.48;;;1.40;99.90;;;;;;5080187;28;20055;-67
2023/03/08 09:07:58;;;;;;;14.98;12.32;;;1.30;99.90;;;;;;5073370;28;20040;-67
2023/03/08 09:10:28;;;;;;;18.42;12.98;;;1.20;99.90;;;;;;5061962;28;20052;-68
2023/03/08 09:12:54;;;;;;;15.68;12.20;;;1.20;99.90;;;;;;5064088;28;20044;-68
2023/03/08 09:15:21;;;;;;;15.88;13.57;;;1.10;99.90;;;;;;5068165;28;20044;-68
2023/03/08 09:17:48;;;;;;;14.70;10.50;;;1.10;99.90;;;;;;5064335;28;20040;-68
2023/03/08 09:20:14;;;;;;;13.77;11.27;;;1.10;99.90;;;;;;5069497;28;20055;-68
2023/03/08 09:22:41;;;;;;;21.50;11.93;;;1.00;99.90;;;;;;5067586;28;20451;-68
2023/03/08 09:25:08;;;;;;;12.95;11.35;;;0.80;99.90;;;;;;5071130;28;20032;-68
2023/03/08 09:27:33;;;;;;;22.75;12.23;;;0.60;99.90;;;;;;5062976;28;20330;-68
2023/03/08 09:29:59;;;;;;;18.00;12.07;;;0.60;99.90;;;;;;5068554;28;20084;-68
2023/03/08 09:32:25;;;;;;;21.75;13.05;;;0.50;99.90;;;;;;5069511;28;20500;-68
2023/03/08 09:34:52;;;;;;;14.80;11.95;;;0.50;99.90;;;;;;5066107;28;20194;-68
2023/03/08 09:37:19;;;;;;;18.38;12.73;;;0.50;99.90;;;;;;5067776;28;20515;-68
2023/03/08 09:39:45;;;;;;;16.75;13.13;;;0.60;99.90;;;;;;5082104;28;20042;-68
2023/03/08 09:42:26;;;;;;;16.17;12.65;;;0.70;99.90;;;;;;5066881;28;20036;-68
2023/03/08 09:45:04;;;;;;;15.40;11.68;;;0.60;99.90;;;;;;5078926;28;20067;-68
2023/03/08 09:48:03;;;;;;;15.68;12.68;;;0.70;99.90;;;;;;5048886;28;20044;-68
2023/03/08 09:50:53;;;;;;;13.77;11.80;;;0.90;99.90;;;;;;5064732;28;20127;-68
2023/03/08 09:53:31;;;;;;;16.75;11.85;;;1.00;99.90;;;;;;5082931;28;20110;-68
2023/03/08 09:56:27;;;;;;;13.13;11.68;;;1.10;99.90;;;;;;5070318;28;20094;-68
2023/03/08 09:59:12;;;;;;;14.98;11.80;;;1.20;99.90;;;;;;5061711;28;20082;-68
2023/03/08 10:02:13;;;;;;;16.77;12.15;;;1.30;99.90;;;;;;5068881;28;20452;-68
2023/03/08 10:04:55;;;;;;;14.88;13.27;;;1.40;99.90;;;;;;5003726;28;20187;-68
2023/03/08 10:07:20;;;;;;;16.67;12.95;;;1.60;99.90;;;;;;5041391;28;20196;-68
2023/03/08 10:10:20;;;;;;;15.90;13.13;;;1.80;99.90;;;;;;5026264;28;20121;-67
2023/03/08 10:13:04;;;;;;;14.23;12.43;;;2.00;99.90;;;;;;5028701;28;20043;-68
2023/03/08 10:15:35;;;;;;;15.02;12.27;;;2.20;99.90;;;;;;5041183;28;20146;-67
2023/03/08 10:18:29;;;;;;;15.02;12.30;;;2.30;99.90;;;;;;5038924;28;20041;-67
2023/03/08 10:20:58;;;;;;;12.48;11.18;;;2.30;99.90;;;;;;5019706;28;20689;-67
2023/03/08 10:23:26;;;;;;;11.63;10.43;;;2.40;99.90;;;;;;5026819;28;20045;-67
2023/03/08 10:25:52;;;;;;;12.52;11.20;;;2.40;99.90;;;;;;5023601;28;20439;-67
2023/03/08 10:28:22;;;;;;;11.55;10.32;;;2.60;99.90;;;;;;5031742;28;20044;-67
2023/03/08 10:30:49;;;;;;;11.48;10.05;;;2.70;99.90;;;;;;5031103;28;20094;-67
2023/03/08 10:33:18;;;;;;;11.48;10.27;;;2.80;99.90;;;;;;5044706;28;20067;-67
2023/03/08 10:35:52;;;;;;;12.45;10.73;;;3.10;99.90;;;;;;5028906;28;20071;-67
2023/03/08 10:38:18;;;;;;;11.27;9.05;;;3.50;99.90;;;;;;5025969;28;20111;-67
2023/03/08 10:40:44;;;;;;;12.45;9.38;;;3.90;99.90;;;;;;5043632;28;20075;-67
2023/03/08 10:43:24;;;;;;;11.25;9.90;;;3.90;99.90;;;;;;5031137;28;20041;-67
2023/03/08 10:46:23;;;;;;;10.40;9.35;;;4.10;99.90;;;;;;5042463;28;20094;-67
2023/03/08 10:48:50;;;;;;;9.90;8.70;;;4.00;99.90;;;;;;5015069;28;20052;-67
2023/03/08 10:51:26;;;;;;;8.95;8.05;;;4.00;99.90;;;;;;5022312;28;20041;-67
2023/03/08 10:54:01;;;;;;;9.27;8.20;;;4.10;99.90;;;;;;5042044;28;20037;-67
2023/03/08 10:56:36;;;;;;;9.77;8.43;;;4.20;99.90;;;;;;5023886;28;20049;-67
2023/03/08 10:59:03;;;;;;;;;;;4.00;99.90;;;;;;5028671;28;20049;-67
2023/03/08 11:01:34;;;;;;;9.38;8.30;;;4.10;99.90;;;;;;5028310;28;19921;-64
2023/03/08 11:04:12;;;;;;;10.75;9.10;;;4.10;99.90;;;;;;5058941;28;20088;-66
2023/03/08 11:06:38;;;;;;;10.13;9.05;;;4.00;99.90;;;;;;5063425;28;20053;-66
2023/03/08 11:09:22;;;;;;;9.57;8.57;;;3.80;99.90;;;;;;5056781;28;20086;-67
2023/03/08 11:11:48;;;;;;;10.10;8.93;;;3.70;99.90;;;;;;5064721;28;20056;-66
2023/03/08 11:14:15;;;;;;;11.38;9.35;;;3.70;99.90;;;;;;5059384;28;20103;-66
2023/03/08 11:16:44;;;;;;;12.18;10.05;;;3.70;99.90;;;;;;5065722;28;20047;-66
2023/03/08 11:19:27;;;;;;;11.77;9.20;;;3.70;99.90;;;;;;5061344;28;20048;-66
2023/03/08 11:22:35;;;;;;;12.30;9.40;;;3.50;99.90;;;;;;5064698;28;20119;-66
2023/03/08 11:25:10;;;;;;;10.45;9.32;;;3.50;99.90;;;;;;5058572;28;20063;-66
2023/03/08 11:27:57;;;;;;;;;;;3.40;99.90;;;;;;5057510;28;20079;-66
2023/03/08 11:30:44;;;;;;;10.30;9.00;;;3.30;99.90;;;;;;5065827;28;19924;-66
2023/03/08 11:33:37;;;;;;;12.38;8.90;;;3.30;99.90;;;;;;5080740;28;20102;-66
2023/03/08 11:36:19;;;;;;;11.20;8.88;;;3.30;99.90;;;;;;5065056;28;20045;-66
2023/03/08 11:38:53;;;;;;;12.68;9.85;;;3.30;99.90;;;;;;5070731;28;20123;-66
2023/03/08 11:41:32;;;;;;;14.25;11.18;;;3.40;99.90;;;;;;5067894;28;20045;-67
2023/03/08 11:44:07;;;;;;;12.05;9.93;;;3.40;99.90;;;;;;5057905;28;20041;-66
2023/03/08 11:46:48;;;;;;;;;;;3.50;99.90;;;;;;5066912;28;20480;-66
2023/03/08 11:49:38;;;;;;;12.82;9.60;;;3.40;99.90;;;;;;5067693;28;19917;-67
2023/03/08 11:52:24;;;;;;;9.65;8.52;;;3.60;99.90;;;;;;5064222;28;20059;-66
2023/03/08 11:55:19;;;;;;;11.82;8.48;;;3.70;99.90;;;;;;5058381;28;20085;-66
2023/03/08 11:57:51;;;;;;;9.38;7.53;;;3.80;99.90;;;;;;5088646;28;20450;-66
2023/03/08 12:00:22;;;;;;;11.10;7.97;;;3.90;99.90;;;;;;5088470;28;20404;-66
2023/03/08 12:02:49;;;;;;;9.98;8.15;;;3.90;99.90;;;;;;5088639;28;20048;-66
2023/03/08 12:05:21;;;;;;;10.50;8.40;;;3.90;99.90;;;;;;5072379;28;20089;-66
2023/03/08 12:08:00;;;;;;;11.20;7.65;;;3.80;99.90;;;;;;5068030;28;20051;-67
2023/03/08 12:10:39;;;;;;;13.52;8.27;;;3.90;99.90;;;;;;5069737;28;20132;-67
2023/03/08 12:13:32;;;;;;;11.88;8.65;;;3.90;99.90;;;;;;5067680;28;20151;-66
2023/03/08 12:16:09;;;;;;;10.55;6.95;;;4.00;99.90;;;;;;5071463;28;20070;-66
2023/03/08 12:18:35;;;;;;;9.45;6.90;;;4.00;99.90;;;;;;5087164;28;20116;-66
2023/03/08 12:21:26;;;;;;;8.93;6.85;;;4.00;99.90;;;;;;5062410;28;20096;-66
2023/03/08 12:24:13;;;;;;;12.77;7.22;;;3.90;99.90;;;;;;5061110;28;20518;-66
2023/03/08 12:27:00;;;;;;;9.45;6.60;;;3.90;99.90;;;;;;5065427;28;20044;-66
2023/03/08 12:29:34;;;;;;;8.50;6.63;;;3.90;99.90;;;;;;5090644;28;20051;-66
2023/03/08 12:32:01;;;;;;;12.27;6.30;;;3.90;99.90;;;;;;5085264;28;20055;-66
2023/03/08 12:34:28;;;;;;;10.52;7.57;;;3.90;99.90;;;;;;5081574;28;20048;-66
2023/03/08 12:36:54;;;;;;;8.50;6.35;;;4.00;99.90;;;;;;5083971;28;20044;-66
2023/03/08 12:39:29;;;;;;;8.13;5.50;;;4.00;99.90;;;;;;5088600;28;20653;-66
2023/03/08 12:42:00;;;;;;;6.78;5.40;;;4.10;99.90;;;;;;5087444;28;20036;-66
2023/03/08 12:44:29;;;;;;;10.27;6.70;;;4.10;99.90;;;;;;5083501;28;20028;-66
2023/03/08 12:47:00;;;;;;;7.07;5.13;;;4.10;99.90;;;;;;5084536;28;20491;-66
2023/03/08 12:49:33;;;;;;;9.07;5.60;;;4.10;99.90;;;;;;5089935;28;20115;-66
2023/03/08 12:52:03;;;;;;;8.57;5.50;;;4.10;99.90;;;;;;5081056;28;20036;-66
2023/03/08 12:54:32;;;;;;;6.78;4.25;;;4.10;99.90;;;;;;5076793;28;20044;-66